^^
Station Historical Data
Daily Summary for August 11, 2021 Units:  English    Metric   Both
Daily Weekly Monthly Yearly
  High: Low: Average:
Temperature: 82 °F 69.8 °F 74.3 °F
Dew Point: 76 °F 67 °F 69.8 °F
Humidity: 92% 80% 86%
Wind Speed: 7mph 1mph 2.9mph
Wind Gust: 9mph - -
Wind- - SSE
Pressure: 29.88 in 29.72 in -
Precipitation: 1.45 in    
 
 
Tabular Data for August 11, 2021
Time Temperature Dew Point Pressure Wind Wind Speed Wind Gust Humidity Rainfall Rate (Hourly) solar
00:00 77.8 °F 73.3 °F 29.78 in East 1 mph 1 mph 86% 0.00 in 0 W/m2
00:05 77.7 °F 73.2 °F 29.77 in SE 1 mph 1 mph 86% 0.00 in 0 W/m2
00:10 77.9 °F 73.7 °F 29.77 in SE 1 mph 2 mph 87% 0.00 in 0 W/m2
00:15 77.7 °F 73.2 °F 29.76 in South 2 mph 2 mph 86% 0.00 in 0 W/m2
00:20 77.6 °F 73.1 °F 29.75 in SE 2 mph 2 mph 86% 0.00 in 0 W/m2
00:25 77.5 °F 73 °F 29.74 in ESE 2 mph 2 mph 86% 0.00 in 0 W/m2
00:30 77.4 °F 72.9 °F 29.73 in East 2 mph 2 mph 86% 0.00 in 0 W/m2
00:35 77.4 °F 72.9 °F 29.73 in SE 2 mph 2 mph 86% 0.00 in 0 W/m2
00:40 77.3 °F 72.8 °F 29.74 in ESE 2 mph 2 mph 86% 0.00 in 0 W/m2
00:45 77.3 °F 73.1 °F 29.73 in SE 2 mph 3 mph 87% 0.00 in 0 W/m2
00:50 77.2 °F 72.7 °F 29.72 in SSE 2 mph 2 mph 86% 0.00 in 0 W/m2
00:55 77.2 °F 73 °F 29.72 in SE 2 mph 2 mph 87% 0.00 in 0 W/m2
01:00 77.2 °F 72.7 °F 29.75 in WSW 2 mph 5 mph 86% 0.00 in 0 W/m2
01:05 77 °F 72.5 °F 29.80 in ESE 3 mph 5 mph 86% 1.29 in 0 W/m2
01:10 76.6 °F 72.4 °F 29.85 in NNW 3 mph 7 mph 87% 7.68 in 0 W/m2
01:15 75.1 °F 69.6 °F 29.88 in NE 5 mph 7 mph 83% 7.11 in 0 W/m2
01:20 73.9 °F 68.8 °F 29.85 in North 6 mph 6 mph 84% 2.67 in 0 W/m2
01:25 73 °F 68.6 °F 29.80 in NNW 5 mph 6 mph 86% 0.57 in 0 W/m2
01:30 72.4 °F 68.3 °F 29.78 in NNW 3 mph 4 mph 87% 0.13 in 0 W/m2
01:35 72 °F 68.2 °F 29.78 in South 4 mph 4 mph 88% 0.06 in 0 W/m2
01:40 71.7 °F 68.3 °F 29.79 in NNW 4 mph 4 mph 89% 0.04 in 0 W/m2
01:45 71.5 °F 68.1 °F 29.80 in East 3 mph 4 mph 89% 0.00 in 0 W/m2
01:50 71.3 °F 67.9 °F 29.79 in WNW 3 mph 3 mph 89% 0.00 in 0 W/m2
01:55 71.2 °F 68.1 °F 29.79 in ENE 3 mph 3 mph 90% 0.00 in 0 W/m2
02:00 71.1 °F 68 °F 29.79 in NNW 2 mph 3 mph 90% 0.00 in 0 W/m2
02:05 71 °F 67.9 °F 29.78 in NNW 2 mph 3 mph 90% 0.00 in 0 W/m2
02:10 70.9 °F 67.8 °F 29.79 in NNW 2 mph 2 mph 90% 0.00 in 0 W/m2
02:15 70.8 °F 67.7 °F 29.79 in NNW 1 mph 2 mph 90% 0.00 in 0 W/m2
02:20 70.7 °F 67.6 °F 29.79 in NW 1 mph 2 mph 90% 0.00 in 0 W/m2
02:25 70.7 °F 67.6 °F 29.79 in West 2 mph 2 mph 90% 0.00 in 0 W/m2
02:30 70.5 °F 67.4 °F 29.80 in SW 1 mph 1 mph 90% 0.00 in 0 W/m2
02:35 70.5 °F 67.4 °F 29.79 in NW 1 mph 3 mph 90% 0.00 in 0 W/m2
02:40 70.4 °F 67.3 °F 29.79 in WNW 2 mph 4 mph 90% 0.00 in 0 W/m2
02:45 70.3 °F 67.2 °F 29.78 in WNW 2 mph 6 mph 90% 0.00 in 0 W/m2
02:50 70.2 °F 67.1 °F 29.77 in NNW 3 mph 6 mph 90% 0.00 in 0 W/m2
02:55 70.1 °F 67 °F 29.77 in WNW 4 mph 6 mph 90% 0.00 in 0 W/m2
03:00 70 °F 67.3 °F 29.79 in SSW 4 mph 4 mph 91% 0.00 in 0 W/m2
03:05 70 °F 67.3 °F 29.79 in North 2 mph 4 mph 91% 0.00 in 0 W/m2
03:10 69.9 °F 67.2 °F 29.79 in SSW 3 mph 3 mph 91% 0.00 in 0 W/m2
03:15 69.9 °F 67.2 °F 29.79 in WNW 4 mph 4 mph 91% 0.00 in 0 W/m2
03:20 69.8 °F 67.1 °F 29.79 in WSW 3 mph 3 mph 91% 0.00 in 0 W/m2
03:25 69.9 °F 67.2 °F 29.80 in SW 2 mph 3 mph 91% 0.00 in 0 W/m2
03:30 69.9 °F 67.2 °F 29.79 in NE 1 mph 1 mph 91% 0.00 in 0 W/m2
03:35 69.9 °F 67.2 °F 29.80 in NW 1 mph 2 mph 91% 0.00 in 0 W/m2
03:40 69.9 °F 67.2 °F 29.79 in NNW 2 mph 2 mph 91% 0.00 in 0 W/m2
03:45 69.8 °F 67.4 °F 29.79 in SW 2 mph 2 mph 92% 0.00 in 0 W/m2
03:50 69.8 °F 67.4 °F 29.80 in SSW 2 mph 2 mph 92% 0.00 in 0 W/m2
03:55 69.9 °F 67.5 °F 29.80 in West 2 mph 2 mph 92% 0.00 in 0 W/m2
04:00 69.9 °F 67.5 °F 29.80 in SW 2 mph 2 mph 92% 0.00 in 0 W/m2
04:05 70 °F 67.6 °F 29.79 in SSW 2 mph 3 mph 92% 0.00 in 0 W/m2
04:10 70.6 °F 68.2 °F 29.79 in East 2 mph 2 mph 92% 0.00 in 0 W/m2
04:15 70.8 °F 68 °F 29.78 in SE 1 mph 2 mph 91% 0.00 in 0 W/m2
04:20 71.4 °F 68.6 °F 29.78 in NNW 1 mph 2 mph 91% 0.00 in 0 W/m2
04:25 71.7 °F 68.6 °F 29.78 in NE 2 mph 2 mph 90% 0.00 in 0 W/m2
04:30 72.1 °F 68.7 °F 29.78 in SSW 2 mph 4 mph 89% 0.00 in 0 W/m2
04:35 72.5 °F 69.1 °F 29.78 in SSE 2 mph 4 mph 89% 0.00 in 0 W/m2
04:40 72.5 °F 68.7 °F 29.80 in WSW 3 mph 4 mph 88% 0.00 in 0 W/m2
04:45 72.3 °F 68.5 °F 29.80 in WSW 4 mph 4 mph 88% 0.00 in 0 W/m2
04:50 72.2 °F 68.1 °F 29.79 in SW 4 mph 4 mph 87% 0.00 in 0 W/m2
04:55 72.1 °F 68 °F 29.79 in South 4 mph 4 mph 87% 0.00 in 0 W/m2
05:00 72.1 °F 68 °F 29.79 in SW 4 mph 6 mph 87% 0.00 in 0 W/m2
05:05 72.1 °F 68 °F 29.78 in SW 4 mph 6 mph 87% 0.00 in 0 W/m2
05:10 72.3 °F 68.5 °F 29.78 in WNW 5 mph 5 mph 88% 0.00 in 0 W/m2
05:15 72.4 °F 68.6 °F 29.78 in East 5 mph 5 mph 88% 0.00 in 0 W/m2
05:20 72.6 °F 68.8 °F 29.78 in WSW 5 mph 7 mph 88% 0.00 in 0 W/m2
05:25 72.6 °F 68.5 °F 29.79 in SW 5 mph 7 mph 87% 0.00 in 0 W/m2
05:30 72.4 °F 68.3 °F 29.79 in SSW 6 mph 7 mph 87% 0.00 in 0 W/m2
05:35 72.2 °F 67.8 °F 29.79 in NW 7 mph 7 mph 86% 0.00 in 0 W/m2
05:40 72.1 °F 67.7 °F 29.79 in SSW 6 mph 6 mph 86% 0.00 in 0 W/m2
05:45 72.1 °F 67.7 °F 29.79 in SSE 6 mph 6 mph 86% 0.00 in 0 W/m2
05:50 72.3 °F 68.2 °F 29.79 in WSW 5 mph 9 mph 87% 0.00 in 0 W/m2
05:55 72.5 °F 68.4 °F 29.79 in NW 5 mph 9 mph 87% 0.00 in 0 W/m2
06:00 72.6 °F 68.2 °F 29.79 in South 5 mph 5 mph 86% 0.00 in 0 W/m2
06:05 72.8 °F 68 °F 29.79 in SSE 4 mph 5 mph 85% 0.00 in 0 W/m2
06:10 73.1 °F 68.3 °F 29.79 in South 4 mph 4 mph 85% 0.00 in 0 W/m2
06:15 73.3 °F 68.5 °F 29.79 in SW 4 mph 4 mph 85% 0.00 in 0 W/m2
06:20 73.3 °F 68.5 °F 29.79 in SSW 4 mph 5 mph 85% 0.00 in 0 W/m2
06:25 73.5 °F 68.4 °F 29.79 in NNW 4 mph 5 mph 84% 0.00 in 0 W/m2
06:30 73.6 °F 68.5 °F 29.79 in SW 4 mph 5 mph 84% 0.00 in 0 W/m2
06:35 73.5 °F 68.4 °F 29.79 in South 3 mph 5 mph 84% 0.00 in 5 W/m2
06:40 73.5 °F 68.4 °F 29.79 in East 3 mph 4 mph 84% 0.00 in 9 W/m2
06:45 73.6 °F 68.5 °F 29.79 in SSW 3 mph 4 mph 84% 0.00 in 12 W/m2
06:50 73.5 °F 68.4 °F 29.80 in ENE 2 mph 2 mph 84% 0.00 in 19 W/m2
06:55 73.5 °F 69.1 °F 29.79 in North 2 mph 2 mph 86% 0.00 in 25 W/m2
07:00 73.3 °F 68.2 °F 29.80 in East 2 mph 3 mph 84% 0.00 in 28 W/m2
07:05 73.4 °F 68.6 °F 29.79 in East 2 mph 3 mph 85% 0.00 in 37 W/m2
07:10 73.5 °F 68.7 °F 29.79 in South 3 mph 5 mph 85% 0.00 in 46 W/m2
07:15 73.6 °F 68.8 °F 29.79 in SSW 3 mph 5 mph 85% 0.00 in 46 W/m2
07:20 73.6 °F 68.5 °F 29.79 in ESE 4 mph 4 mph 84% 0.00 in 40 W/m2
07:25 73.7 °F 68.9 °F 29.79 in ESE 3 mph 4 mph 85% 0.00 in 39 W/m2
07:30 73.7 °F 69.2 °F 29.79 in NW 3 mph 3 mph 86% 0.00 in 40 W/m2
07:35 73.5 °F 69.1 °F 29.80 in ENE 2 mph 3 mph 86% 0.00 in 44 W/m2
07:40 73.3 °F 69.2 °F 29.80 in SE 2 mph 2 mph 87% 0.00 in 47 W/m2
07:45 73.3 °F 68.9 °F 29.80 in ENE 2 mph 2 mph 86% 0.00 in 46 W/m2
07:50 73.3 °F 68.9 °F 29.80 in SSE 2 mph 6 mph 86% 0.00 in 46 W/m2
07:55 73.3 °F 68.9 °F 29.80 in ESE 3 mph 6 mph 86% 0.00 in 49 W/m2
08:00 73.5 °F 69.1 °F 29.80 in SSE 3 mph 4 mph 86% 0.00 in 56 W/m2
08:05 73.6 °F 68.8 °F 29.80 in SSW 3 mph 5 mph 85% 0.00 in 62 W/m2
08:10 73.6 °F 68.8 °F 29.80 in NE 3 mph 3 mph 85% 0.00 in 67 W/m2
08:15 73.7 °F 68.9 °F 29.80 in ESE 3 mph 3 mph 85% 0.00 in 69 W/m2
08:20 73.7 °F 69.2 °F 29.80 in NE 2 mph 4 mph 86% 0.00 in 83 W/m2
08:25 73.6 °F 68.8 °F 29.80 in NE 2 mph 4 mph 85% 0.00 in 188 W/m2
08:30 73.4 °F 68.6 °F 29.81 in SE 2 mph 2 mph 85% 0.00 in 197 W/m2
08:35 73.5 °F 68.7 °F 29.81 in NNE 2 mph 3 mph 85% 0.00 in 220 W/m2
08:40 73.5 °F 68.7 °F 29.81 in ENE 2 mph 2 mph 85% 0.00 in 221 W/m2
08:45 73.6 °F 68.8 °F 29.81 in SE 2 mph 3 mph 85% 0.00 in 250 W/m2
08:50 73.5 °F 68.7 °F 29.81 in SE 2 mph 4 mph 85% 0.00 in 258 W/m2
08:55 73.4 °F 68.6 °F 29.81 in NNE 3 mph 4 mph 85% 0.00 in 278 W/m2
09:00 73.5 °F 68.7 °F 29.81 in North 3 mph 3 mph 85% 0.00 in 294 W/m2
09:05 73.5 °F 68.7 °F 29.80 in NNE 3 mph 3 mph 85% 0.00 in 308 W/m2
09:10 73.6 °F 68.8 °F 29.81 in NNE 3 mph 4 mph 85% 0.00 in 323 W/m2
09:15 73.7 °F 68.9 °F 29.81 in NNE 3 mph 4 mph 85% 0.00 in 339 W/m2
09:20 73.9 °F 69.1 °F 29.81 in NNE 3 mph 3 mph 85% 0.00 in 357 W/m2
09:25 74.1 °F 69 °F 29.81 in ESE 3 mph 3 mph 84% 0.00 in 367 W/m2
09:30 74.3 °F 69.1 °F 29.81 in NNE 3 mph 3 mph 84% 0.00 in 388 W/m2
09:35 74.5 °F 69.3 °F 29.80 in North 3 mph 4 mph 84% 0.00 in 401 W/m2
09:40 74.6 °F 69.4 °F 29.80 in NNE 2 mph 3 mph 84% 0.00 in 387 W/m2
09:45 74.7 °F 69.5 °F 29.80 in NE 2 mph 3 mph 84% 0.00 in 353 W/m2
09:50 74.8 °F 69.6 °F 29.80 in East 3 mph 3 mph 84% 0.00 in 367 W/m2
09:55 74.8 °F 70 °F 29.80 in North 3 mph 4 mph 85% 0.00 in 387 W/m2
10:00 74.9 °F 70.1 °F 29.79 in NNW 3 mph 3 mph 85% 0.00 in 388 W/m2
10:05 74.9 °F 70.1 °F 29.79 in North 3 mph 3 mph 85% 0.00 in 459 W/m2
10:10 75.1 °F 70.3 °F 29.79 in North 3 mph 5 mph 85% 0.00 in 429 W/m2
10:15 75.2 °F 70.4 °F 29.79 in NE 3 mph 5 mph 85% 0.00 in 487 W/m2
10:20 75.4 °F 70.6 °F 29.79 in SE 3 mph 3 mph 85% 0.00 in 501 W/m2
10:25 75.5 °F 70.7 °F 29.79 in West 3 mph 3 mph 85% 0.00 in 512 W/m2
10:30 75.7 °F 70.5 °F 29.79 in NNE 3 mph 4 mph 84% 0.00 in 526 W/m2
10:35 75.9 °F 71.1 °F 29.78 in NNE 3 mph 4 mph 85% 0.00 in 541 W/m2
10:40 76.1 °F 70.9 °F 29.78 in NNE 3 mph 3 mph 84% 0.00 in 552 W/m2
10:45 76.3 °F 70.8 °F 29.78 in NNW 3 mph 3 mph 83% 0.00 in 561 W/m2
10:50 76.5 °F 70.9 °F 29.77 in NW 3 mph 5 mph 83% 0.00 in 548 W/m2
10:55 76.7 °F 71.1 °F 29.77 in SE 3 mph 5 mph 83% 0.00 in 578 W/m2
11:00 76.9 °F 71.3 °F 29.77 in NNE 3 mph 3 mph 83% 0.00 in 585 W/m2
11:05 77 °F 71.1 °F 29.77 in NNE 3 mph 3 mph 82% 0.00 in 592 W/m2
11:10 77.3 °F 71.4 °F 29.77 in NNW 3 mph 3 mph 82% 0.00 in 596 W/m2
11:15 77.3 °F 71.4 °F 29.77 in SSE 3 mph 3 mph 82% 0.00 in 603 W/m2
11:25 77.7 °F 71.8 °F 29.77 in ENE 3 mph 4 mph 82% 0.00 in 615 W/m2
11:30 77.8 °F 71.9 °F 29.77 in NE 3 mph 4 mph 82% 0.00 in 629 W/m2
11:35 77.9 °F 72 °F 29.77 in NE 3 mph 3 mph 82% 0.00 in 629 W/m2
11:40 77.8 °F 71.5 °F 29.77 in NE 3 mph 3 mph 81% 0.00 in 631 W/m2
11:45 78.1 °F 72.2 °F 29.77 in NNE 3 mph 4 mph 82% 0.00 in 638 W/m2
11:50 78.2 °F 72.3 °F 29.78 in NNE 3 mph 4 mph 82% 0.00 in 642 W/m2
11:55 78.4 °F 72.4 °F 29.78 in NW 3 mph 3 mph 82% 0.00 in 645 W/m2
12:00 78.5 °F 72.9 °F 29.78 in NNW 3 mph 3 mph 83% 0.00 in 650 W/m2
12:05 78.6 °F 72.6 °F 29.78 in NNE 3 mph 3 mph 82% 0.00 in 654 W/m2
12:10 78.7 °F 73.1 °F 29.77 in ENE 3 mph 3 mph 83% 0.00 in 649 W/m2
12:15 78.9 °F 72.9 °F 29.77 in NNE 3 mph 3 mph 82% 0.00 in 656 W/m2
12:20 79.1 °F 73.5 °F 29.77 in West 3 mph 4 mph 83% 0.00 in 668 W/m2
12:25 79.4 °F 73.8 °F 29.76 in NNE 3 mph 4 mph 83% 0.00 in 671 W/m2
12:30 79.8 °F 74.2 °F 29.76 in North 3 mph 3 mph 83% 0.00 in 673 W/m2
12:35 79.9 °F 74.3 °F 29.76 in NE 3 mph 3 mph 83% 0.00 in 680 W/m2
12:40 80 °F 74 °F 29.76 in NNE 3 mph 4 mph 82% 0.00 in 677 W/m2
12:45 80.2 °F 74.2 °F 29.76 in NE 3 mph 4 mph 82% 0.00 in 675 W/m2
12:50 80.3 °F 74.3 °F 29.76 in ESE 3 mph 3 mph 82% 0.00 in 679 W/m2
12:55 80.5 °F 74.9 °F 29.76 in NE 3 mph 3 mph 83% 0.00 in 696 W/m2
13:00 80.8 °F 74.8 °F 29.76 in North 3 mph 3 mph 82% 0.00 in 700 W/m2
13:05 81 °F 74.6 °F 29.75 in NNE 3 mph 4 mph 81% 0.00 in 700 W/m2
13:10 81.1 °F 74.3 °F 29.75 in NE 3 mph 3 mph 80% 0.00 in 696 W/m2
13:15 81.1 °F 74.7 °F 29.75 in NE 3 mph 3 mph 81% 0.00 in 698 W/m2
13:20 81.5 °F 75.1 °F 29.74 in ENE 3 mph 4 mph 81% 0.00 in 700 W/m2
13:30 81.7 °F 75.3 °F 29.74 in SW 3 mph 3 mph 81% 0.00 in 707 W/m2
13:35 82 °F 76 °F 29.74 in NNE 3 mph 3 mph 82% 0.00 in 707 W/m2
Sand Point, Michigan, USA
Compliments of Weather Underground - 2 mb